Allensburg, Ohio
Current Conditions -  °F | °C
As of 6:54 PM on Sunday 21 Dec 2014 (Local Time) from KILN Reporting Station
Clear Clear  
Wind Chill: 24°   Ceiling: Unl
Heat Index: 30°   Visibility: 8mi
Dew Point: 24°   Wind: 6mph
Humidity: 79%   Direction: 110°ESE
Pressure: 30.17"   Gusts: NA
Location:  39.1546°N, 83.569°W
Report Text: KILN 212354Z AUTO 11005KT 8SM CLR M01/M04 A3017 RMK AO2 SLP247 T10111044 10017 21017 58005
Loading
Personal Weather Stations






























Interactive Weather Map New forecast layout! Learn more

10-Day Weather Forecast

Advertisements
Track Severe Weather on mobile